Time;durP1;ratioP1;P1;durP2;ratioP2;P2;SDS_P1;SDS_P2;PMS_P1;PMS_P2;Temp;Humidity;BMP_temperature;BMP_pressure;BME280_temperature;BME280_humidity;BME280_pressure;Samples;Min_cycle;Max_cycle;Signal;HPM_P1;HPM_P2
2022/10/11 00:01:03;;;;;;;1.50;1.20;;;10.30;98.20;;;;;;5079208;28;20464;-75
2022/10/11 00:03:30;;;;;;;1.50;1.20;;;10.30;98.20;;;;;;5104308;28;20470;-74
2022/10/11 00:05:57;;;;;;;1.50;1.17;;;10.30;98.20;;;;;;5081191;28;20464;-74
2022/10/11 00:08:24;;;;;;;1.50;1.10;;;10.30;98.20;;;;;;5105161;28;20558;-75
2022/10/11 00:11:01;;;;;;;1.50;1.10;;;10.20;98.20;;;;;;5081643;28;21008;-75
2022/10/11 00:13:28;;;;;;;1.53;1.10;;;10.20;98.20;;;;;;5099874;27;20888;-74
2022/10/11 00:15:56;;;;;;;1.50;1.20;;;10.20;98.20;;;;;;5079324;28;20492;-74
2022/10/11 00:18:23;;;;;;;1.50;1.20;;;10.20;98.20;;;;;;5086884;28;20568;-75
2022/10/11 00:20:50;;;;;;;1.50;1.10;;;10.10;98.20;;;;;;5080895;28;20470;-74
2022/10/11 00:23:17;;;;;;;1.50;1.20;;;10.10;98.20;;;;;;5105996;28;20548;-75
2022/10/11 00:25:44;;;;;;;1.50;1.20;;;10.10;98.20;;;;;;5090569;28;20475;-75
2022/10/11 00:28:13;;;;;;;1.50;1.20;;;10.10;98.20;;;;;;5094994;28;20480;-75
2022/10/11 00:30:43;;;;;;;1.57;1.30;;;10.10;98.20;;;;;;5090645;28;20468;-74
2022/10/11 00:33:10;;;;;;;1.57;1.20;;;10.10;98.20;;;;;;5095319;28;20518;-74
2022/10/11 00:35:40;;;;;;;1.50;1.10;;;10.10;98.20;;;;;;5090142;28;20488;-74
2022/10/11 00:38:07;;;;;;;1.50;1.20;;;10.00;98.20;;;;;;5094242;28;20638;-74
2022/10/11 00:40:35;;;;;;;1.50;1.20;;;10.00;98.20;;;;;;5090700;28;20462;-74
2022/10/11 00:43:02;;;;;;;1.50;1.13;;;10.00;98.20;;;;;;5094346;28;21003;-74
2022/10/11 00:46:01;;;;;;;1.50;1.10;;;9.90;98.20;;;;;;5087435;28;20448;-74
2022/10/11 00:48:35;;;;;;;1.50;1.20;;;9.90;98.20;;;;;;5078082;28;20480;-74
2022/10/11 00:51:07;;;;;;;1.53;1.20;;;9.90;98.20;;;;;;5076909;28;20460;-75
2022/10/11 00:53:34;;;;;;;1.50;1.23;;;9.90;98.20;;;;;;5093963;28;20999;-75
2022/10/11 00:56:05;;;;;;;1.53;1.20;;;9.80;98.20;;;;;;5081513;28;20519;-74
2022/10/11 00:58:34;;;;;;;1.50;1.10;;;9.80;98.20;;;;;;5103544;28;20520;-74
2022/10/11 01:01:03;;;;;;;1.50;1.10;;;9.80;98.20;;;;;;5078734;28;20854;-74
2022/10/11 01:03:32;;;;;;;1.53;1.10;;;9.70;98.20;;;;;;5094489;28;20966;-74
2022/10/11 01:06:00;;;;;;;1.50;1.20;;;9.70;98.20;;;;;;5080646;28;20551;-74
2022/10/11 01:08:27;;;;;;;1.50;1.20;;;9.70;98.20;;;;;;5103453;28;20484;-74
2022/10/11 01:10:56;;;;;;;1.53;1.17;;;9.70;98.20;;;;;;5080527;28;20483;-75
2022/10/11 01:13:33;;;;;;;1.50;1.20;;;9.60;98.20;;;;;;5104084;28;20468;-74
2022/10/11 01:16:11;;;;;;;1.50;1.20;;;9.60;98.20;;;;;;5080025;28;20486;-74
2022/10/11 01:18:45;;;;;;;1.50;1.10;;;9.50;98.20;;;;;;5101784;28;20996;-74
2022/10/11 01:21:21;;;;;;;1.53;1.20;;;9.50;98.20;;;;;;5082367;28;20479;-74
2022/10/11 01:24:30;;;;;;;1.50;1.20;;;9.50;98.20;;;;;;5095076;28;20492;-74
2022/10/11 01:27:34;;;;;;;1.53;1.20;;;9.40;98.20;;;;;;5082596;28;21030;-75
2022/10/11 01:30:23;;;;;;;1.50;1.20;;;9.40;98.20;;;;;;5091107;28;20905;-74
2022/10/11 01:33:00;;;;;;;1.50;1.20;;;9.40;98.20;;;;;;5090054;28;20599;-74
2022/10/11 01:35:33;;;;;;;1.50;1.20;;;9.40;98.20;;;;;;5084255;28;20474;-74
2022/10/11 01:38:07;;;;;;;1.50;1.20;;;9.30;98.20;;;;;;5094486;28;20963;-76
2022/10/11 01:40:40;;;;;;;1.50;1.20;;;9.20;98.20;;;;;;5089612;28;20552;-76
2022/10/11 01:43:07;;;;;;;1.50;1.20;;;9.20;98.20;;;;;;5093565;28;20486;-75
2022/10/11 01:45:37;;;;;;;1.50;1.30;;;9.20;98.20;;;;;;5086921;28;20517;-75
2022/10/11 01:48:07;;;;;;;1.53;1.20;;;9.10;98.20;;;;;;5073856;28;21375;-75
2022/10/11 01:50:38;;;;;;;1.50;1.30;;;9.10;98.20;;;;;;5087103;28;20456;-75
2022/10/11 01:53:23;;;;;;;1.60;1.30;;;9.10;98.20;;;;;;5076895;28;20502;-74
2022/10/11 01:55:55;;;;;;;1.57;1.20;;;9.10;98.20;;;;;;5062187;28;20485;-75
2022/10/11 01:58:36;;;;;;;1.57;1.30;;;9.00;98.20;;;;;;5084612;28;20477;-75
2022/10/11 02:01:15;;;;;;;1.50;1.20;;;9.00;98.20;;;;;;5076910;28;20872;-75
2022/10/11 02:03:48;;;;;;;1.50;1.20;;;9.00;98.20;;;;;;5083761;28;20539;-74
2022/10/11 02:06:22;;;;;;;1.53;1.20;;;9.00;98.20;;;;;;5080245;28;20485;-74
2022/10/11 02:08:58;;;;;;;1.50;1.20;;;8.90;98.20;;;;;;5090425;28;20544;-74
2022/10/11 02:11:28;;;;;;;1.60;1.37;;;8.90;98.20;;;;;;5073697;28;21146;-74
2022/10/11 02:13:59;;;;;;;1.53;1.20;;;8.90;98.20;;;;;;5096913;28;20487;-74
2022/10/11 02:16:34;;;;;;;1.50;1.20;;;8.80;98.20;;;;;;5082846;28;20570;-74
2022/10/11 02:19:06;;;;;;;1.53;1.20;;;8.80;98.20;;;;;;5097429;28;20524;-74
2022/10/11 02:21:36;;;;;;;1.50;1.30;;;8.80;98.20;;;;;;5083761;28;20554;-74
2022/10/11 02:24:09;;;;;;;1.50;1.20;;;8.80;98.20;;;;;;5097419;28;20464;-74
2022/10/11 02:26:39;;;;;;;1.60;1.30;;;8.70;98.20;;;;;;5084251;28;20486;-73
2022/10/11 02:29:09;;;;;;;1.50;1.20;;;8.70;98.20;;;;;;5095778;28;20493;-74
2022/10/11 02:31:39;;;;;;;1.50;1.20;;;8.70;98.20;;;;;;5083533;28;20979;-74
2022/10/11 02:34:14;;;;;;;1.57;1.20;;;8.60;98.20;;;;;;5096809;28;20469;-74
2022/10/11 02:36:50;;;;;;;1.53;1.20;;;8.60;98.20;;;;;;5084630;28;20479;-74
2022/10/11 02:39:22;;;;;;;1.50;1.20;;;8.60;98.20;;;;;;5089598;28;20486;-74
2022/10/11 02:41:52;;;;;;;1.50;1.13;;;8.60;98.20;;;;;;5085771;28;20495;-74
2022/10/11 02:44:26;;;;;;;1.50;1.20;;;8.50;98.20;;;;;;5094382;28;20815;-74
2022/10/11 02:46:55;;;;;;;1.53;1.20;;;8.50;98.20;;;;;;5080410;28;20468;-74
2022/10/11 02:49:23;;;;;;;1.50;1.20;;;8.50;98.20;;;;;;5093896;28;20536;-74
2022/10/11 02:51:50;;;;;;;1.50;1.20;;;8.50;98.20;;;;;;5084885;28;20479;-73
2022/10/11 02:54:17;;;;;;;1.53;1.30;;;8.50;98.20;;;;;;5095456;28;20555;-73
2022/10/11 02:56:44;;;;;;;1.50;1.20;;;8.50;98.20;;;;;;5084190;28;21006;-74
2022/10/11 02:59:11;;;;;;;1.50;1.27;;;8.50;98.20;;;;;;5095488;28;20542;-74
2022/10/11 03:01:38;;;;;;;1.60;1.30;;;8.40;98.20;;;;;;5082666;28;20502;-73
2022/10/11 03:04:07;;;;;;;1.50;1.30;;;8.40;98.20;;;;;;5096726;28;20500;-74
2022/10/11 03:06:34;;;;;;;1.50;1.20;;;8.40;98.20;;;;;;5077606;28;20522;-73
2022/10/11 03:09:01;;;;;;;1.50;1.20;;;8.30;98.20;;;;;;5086472;28;20915;-74
2022/10/11 03:11:28;;;;;;;1.50;1.30;;;8.30;98.20;;;;;;5082205;28;20476;-74
2022/10/11 03:13:55;;;;;;;1.50;1.20;;;8.30;98.20;;;;;;5095470;28;20460;-74
2022/10/11 03:16:22;;;;;;;1.50;1.20;;;8.30;98.20;;;;;;5080530;28;20529;-74
2022/10/11 03:18:49;;;;;;;1.50;1.20;;;8.30;98.20;;;;;;5098411;28;20815;-74
2022/10/11 03:21:18;;;;;;;1.50;1.20;;;8.20;98.20;;;;;;5080894;28;20568;-74
2022/10/11 03:23:45;;;;;;;1.50;1.30;;;8.20;98.20;;;;;;5099679;28;20532;-74
2022/10/11 03:26:12;;;;;;;1.50;1.27;;;8.20;98.20;;;;;;5079727;28;20489;-74
2022/10/11 03:28:39;;;;;;;1.53;1.20;;;8.20;98.20;;;;;;5098885;28;20545;-74
2022/10/11 03:31:07;;;;;;;1.50;1.20;;;8.10;98.20;;;;;;5078583;28;20464;-74
2022/10/11 03:33:33;;;;;;;1.53;1.27;;;8.10;98.20;;;;;;5100484;28;20567;-74
2022/10/11 03:36:00;;;;;;;1.53;1.20;;;8.10;98.20;;;;;;5079094;28;20468;-74
2022/10/11 03:38:29;;;;;;;1.53;1.20;;;8.10;98.20;;;;;;5105351;28;20511;-74
2022/10/11 03:40:56;;;;;;;1.50;1.20;;;8.00;98.20;;;;;;5082134;28;20857;-74
2022/10/11 03:43:23;;;;;;;1.50;1.20;;;8.00;98.20;;;;;;5105394;28;20464;-74
2022/10/11 03:45:50;;;;;;;1.50;1.30;;;7.90;98.20;;;;;;5080873;28;20513;-74
2022/10/11 03:48:17;;;;;;;1.50;1.20;;;7.90;98.20;;;;;;5105908;28;20480;-74
2022/10/11 03:50:44;;;;;;;1.50;1.20;;;7.90;98.20;;;;;;5092017;28;20562;-74
2022/10/11 03:53:11;;;;;;;1.57;1.30;;;7.90;98.20;;;;;;5096304;28;20488;-74
2022/10/11 03:55:40;;;;;;;1.53;1.30;;;7.90;98.20;;;;;;5088920;28;20460;-73
2022/10/11 03:58:08;;;;;;;1.50;1.20;;;7.90;98.20;;;;;;5093061;28;20483;-74
2022/10/11 04:00:36;;;;;;;1.50;1.20;;;7.90;98.20;;;;;;5091161;28;20463;-73
2022/10/11 04:03:03;;;;;;;1.53;1.30;;;7.90;98.20;;;;;;5085463;28;20479;-74
2022/10/11 04:05:30;;;;;;;1.53;1.23;;;7.90;98.20;;;;;;5083241;28;20508;-74
2022/10/11 04:07:57;;;;;;;1.50;1.30;;;7.90;98.20;;;;;;5094976;27;20491;-74
2022/10/11 04:10:24;;;;;;;1.50;1.20;;;7.90;98.20;;;;;;5090376;28;20957;-74
2022/10/11 04:12:53;;;;;;;1.50;1.30;;;7.80;98.20;;;;;;5090299;28;20583;-73
2022/10/11 04:15:20;;;;;;;1.50;1.20;;;7.80;98.20;;;;;;5089501;28;20467;-74
2022/10/11 04:17:47;;;;;;;1.53;1.20;;;7.80;98.20;;;;;;5094593;28;20553;-74
2022/10/11 04:20:14;;;;;;;1.57;1.30;;;7.80;98.20;;;;;;5089134;28;20503;-73
2022/10/11 04:22:42;;;;;;;1.53;1.20;;;7.90;98.20;;;;;;5093395;28;20486;-74
2022/10/11 04:25:09;;;;;;;1.60;1.40;;;7.90;98.20;;;;;;5090606;28;20815;-73
2022/10/11 04:27:36;;;;;;;1.50;1.20;;;7.90;98.20;;;;;;5092719;28;20479;-74
2022/10/11 04:30:06;;;;;;;1.50;1.20;;;7.90;98.20;;;;;;5088971;28;20483;-74
2022/10/11 04:32:33;;;;;;;1.50;1.20;;;7.90;98.20;;;;;;5077436;28;20555;-74
2022/10/11 04:35:00;;;;;;;1.60;1.30;;;7.90;98.20;;;;;;5088751;28;20460;-74
2022/10/11 04:37:27;;;;;;;1.50;1.20;;;7.90;98.20;;;;;;5090783;28;20911;-74
2022/10/11 04:39:54;;;;;;;1.53;1.30;;;7.90;98.20;;;;;;5091949;28;20488;-73
2022/10/11 04:42:21;;;;;;;1.50;1.30;;;7.90;98.20;;;;;;5073765;28;20491;-73
2022/10/11 04:44:48;;;;;;;1.50;1.20;;;7.90;98.20;;;;;;5087983;28;20573;-73
2022/10/11 04:47:17;;;;;;;1.50;1.20;;;7.90;98.20;;;;;;5089212;28;20523;-73
2022/10/11 04:49:44;;;;;;;1.53;1.20;;;7.90;98.20;;;;;;5093022;28;20605;-73
2022/10/11 04:52:11;;;;;;;1.53;1.30;;;7.90;98.20;;;;;;5075745;28;20553;-73
2022/10/11 04:54:38;;;;;;;1.50;1.10;;;7.90;98.20;;;;;;5088286;28;20459;-74
2022/10/11 04:57:05;;;;;;;1.50;1.30;;;7.90;98.20;;;;;;5086802;28;20471;-73
2022/10/11 04:59:33;;;;;;;1.50;1.20;;;7.90;98.20;;;;;;5094103;28;20572;-73
2022/10/11 05:02:00;;;;;;;1.53;1.20;;;7.90;98.20;;;;;;5087341;27;20558;-74
2022/10/11 05:04:28;;;;;;;1.57;1.30;;;7.90;98.20;;;;;;5095063;28;20499;-73
2022/10/11 05:06:55;;;;;;;1.57;1.30;;;7.90;98.20;;;;;;5077768;28;20666;-73
2022/10/11 05:09:22;;;;;;;1.50;1.20;;;7.90;98.20;;;;;;5089846;28;20495;-73
2022/10/11 05:11:50;;;;;;;1.50;1.20;;;7.90;98.20;;;;;;5076616;28;20489;-73
2022/10/11 05:14:17;;;;;;;1.57;1.20;;;8.00;98.20;;;;;;5087952;28;20460;-73
2022/10/11 05:16:43;;;;;;;1.60;1.30;;;8.00;98.20;;;;;;5084795;27;20535;-73
2022/10/11 05:19:11;;;;;;;1.50;1.20;;;8.00;98.20;;;;;;5094043;28;20491;-73
2022/10/11 05:21:39;;;;;;;1.53;1.20;;;8.00;98.20;;;;;;5084788;28;20484;-73
2022/10/11 05:24:07;;;;;;;1.60;1.40;;;8.10;98.20;;;;;;5098201;28;20472;-73
2022/10/11 05:26:34;;;;;;;1.53;1.30;;;8.10;98.20;;;;;;5084268;28;20479;-72
2022/10/11 05:29:01;;;;;;;1.93;1.73;;;8.10;98.20;;;;;;5094459;28;20487;-73
2022/10/11 05:31:29;;;;;;;1.50;1.20;;;8.10;98.20;;;;;;5083005;28;20552;-72
2022/10/11 05:33:56;;;;;;;1.53;1.30;;;8.10;98.20;;;;;;5098714;28;20962;-73
2022/10/11 05:36:23;;;;;;;1.57;1.30;;;8.10;98.20;;;;;;5082610;28;20873;-73
2022/10/11 05:38:51;;;;;;;1.53;1.30;;;8.10;98.20;;;;;;5098702;28;20500;-74
2022/10/11 05:41:18;;;;;;;1.50;1.20;;;8.10;98.20;;;;;;5080408;28;20567;-73
2022/10/11 05:43:45;;;;;;;1.53;1.20;;;8.10;98.20;;;;;;5098392;28;20467;-73
2022/10/11 05:46:13;;;;;;;1.50;1.20;;;8.20;98.20;;;;;;5079777;28;20516;-75
2022/10/11 05:48:40;;;;;;;1.50;1.20;;;8.20;98.20;;;;;;5100493;28;20483;-74
2022/10/11 05:51:09;;;;;;;1.50;1.30;;;8.20;98.20;;;;;;5078425;28;21145;-74
2022/10/11 05:53:37;;;;;;;1.60;1.40;;;8.30;98.20;;;;;;5098321;28;20861;-74
2022/10/11 05:56:16;;;;;;;1.50;1.30;;;8.20;98.20;;;;;;5075662;28;20453;-74
2022/10/11 05:58:43;;;;;;;2.03;1.83;;;8.20;98.20;;;;;;5087759;28;20499;-74
2022/10/11 06:01:17;;;;;;;1.50;1.20;;;8.20;98.20;;;;;;5080866;28;20510;-73
2022/10/11 06:03:45;;;;;;;1.50;1.20;;;8.30;98.20;;;;;;5098729;28;20456;-73
2022/10/11 06:06:12;;;;;;;1.50;1.20;;;8.30;98.20;;;;;;5077053;28;20490;-74
2022/10/11 06:08:40;;;;;;;1.50;1.20;;;8.30;98.20;;;;;;5089640;28;21053;-75
2022/10/11 06:11:13;;;;;;;1.50;1.20;;;8.30;98.20;;;;;;5079363;28;20518;-75
2022/10/11 06:13:41;;;;;;;1.50;1.20;;;8.20;98.20;;;;;;5095901;28;20461;-75
2022/10/11 06:16:08;;;;;;;1.57;1.30;;;8.20;98.20;;;;;;5078498;28;20468;-74
2022/10/11 06:18:35;;;;;;;1.50;1.20;;;8.10;98.20;;;;;;5086910;28;20544;-75
2022/10/11 06:21:02;;;;;;;1.60;1.30;;;8.20;98.20;;;;;;5078031;28;20545;-75
2022/10/11 06:23:29;;;;;;;1.50;1.20;;;8.20;98.20;;;;;;5099635;28;20465;-75
2022/10/11 06:25:58;;;;;;;1.50;1.20;;;8.20;98.20;;;;;;5078659;28;20479;-75
2022/10/11 06:28:28;;;;;;;1.50;1.20;;;8.30;98.20;;;;;;5101825;28;20492;-75
2022/10/11 06:30:56;;;;;;;1.60;1.30;;;8.30;98.20;;;;;;5073241;28;20560;-74
2022/10/11 06:33:23;;;;;;;1.50;1.20;;;8.40;98.20;;;;;;5090579;28;20965;-75
2022/10/11 06:35:56;;;;;;;1.50;1.20;;;8.40;98.20;;;;;;5077007;28;20468;-75
2022/10/11 06:38:23;;;;;;;1.57;1.20;;;8.40;98.20;;;;;;5098321;28;20913;-76
2022/10/11 06:40:50;;;;;;;1.53;1.20;;;8.50;98.20;;;;;;5080899;28;20464;-75
2022/10/11 06:43:17;;;;;;;1.50;1.20;;;8.60;98.20;;;;;;5097656;28;20914;-75
2022/10/11 06:45:46;;;;;;;1.53;1.20;;;8.60;98.20;;;;;;5085778;28;20944;-76
2022/10/11 06:48:14;;;;;;;1.60;1.20;;;8.70;98.20;;;;;;5075112;28;20472;-75
2022/10/11 06:50:41;;;;;;;1.50;1.20;;;8.80;98.20;;;;;;5085682;28;20456;-75
2022/10/11 06:53:08;;;;;;;1.50;1.20;;;8.80;98.20;;;;;;5074838;28;21191;-75
2022/10/11 06:55:35;;;;;;;1.50;1.20;;;8.90;98.20;;;;;;5083905;28;20522;-76
2022/10/11 06:58:03;;;;;;;1.50;1.20;;;8.90;98.20;;;;;;5076996;28;20483;-76
2022/10/11 07:00:30;;;;;;;1.50;1.20;;;8.90;98.20;;;;;;5087125;28;20472;-75
2022/10/11 07:02:59;;;;;;;1.57;1.20;;;8.90;98.20;;;;;;5090594;28;20486;-74
2022/10/11 07:05:28;;;;;;;1.53;1.20;;;9.00;98.20;;;;;;5086665;28;20465;-75
2022/10/11 07:07:55;;;;;;;1.50;1.20;;;9.10;98.20;;;;;;5092379;28;20555;-75
2022/10/11 07:10:22;;;;;;;1.50;1.13;;;9.10;98.20;;;;;;5085132;28;20453;-75
2022/10/11 07:12:49;;;;;;;1.50;1.20;;;9.20;98.20;;;;;;5088670;28;20536;-74
2022/10/11 07:15:16;;;;;;;1.73;1.63;;;9.30;98.20;;;;;;5084910;28;20982;-74
2022/10/11 07:17:43;;;;;;;1.50;1.20;;;9.30;98.20;;;;;;5090806;28;20991;-74
2022/10/11 07:20:12;;;;;;;1.50;1.10;;;9.40;98.20;;;;;;5085920;28;20860;-74
2022/10/11 07:22:39;;;;;;;1.50;1.10;;;9.40;98.20;;;;;;5081455;28;20473;-74
2022/10/11 07:25:08;;;;;;;1.50;1.20;;;9.50;98.20;;;;;;5086638;28;20468;-74
2022/10/11 07:27:35;;;;;;;1.50;1.20;;;9.60;98.20;;;;;;5090460;28;20705;-74
2022/10/11 07:30:02;;;;;;;1.50;1.17;;;9.70;98.20;;;;;;5088151;28;21019;-75
2022/10/11 07:32:29;;;;;;;1.50;1.10;;;9.70;98.20;;;;;;5090434;28;20638;-75
2022/10/11 07:34:56;;;;;;;1.57;1.20;;;9.70;98.20;;;;;;5088572;28;20457;-75
2022/10/11 07:37:24;;;;;;;1.50;1.20;;;9.70;98.20;;;;;;5087916;28;21060;-75
2022/10/11 07:39:52;;;;;;;1.50;1.10;;;9.80;98.20;;;;;;5089396;28;21006;-75
2022/10/11 07:42:19;;;;;;;1.50;1.10;;;9.80;98.20;;;;;;5088225;28;20490;-75
2022/10/11 07:44:46;;;;;;;1.50;1.10;;;9.70;98.20;;;;;;5088389;28;20491;-75
2022/10/11 07:47:13;;;;;;;1.57;1.10;;;9.80;98.20;;;;;;5077652;28;20603;-75
2022/10/11 07:49:40;;;;;;;1.53;1.20;;;9.90;98.20;;;;;;5087078;28;20508;-75
2022/10/11 07:52:07;;;;;;;1.53;1.23;;;9.90;98.20;;;;;;5086775;28;21138;-76
2022/10/11 07:54:36;;;;;;;1.53;1.10;;;10.00;98.20;;;;;;5091339;28;20495;-74
2022/10/11 07:57:04;;;;;;;1.50;1.10;;;10.00;98.20;;;;;;5071674;28;20484;-75
2022/10/11 07:59:31;;;;;;;1.50;1.10;;;10.10;98.20;;;;;;5083124;28;20486;-75
2022/10/11 08:01:58;;;;;;;1.50;1.20;;;10.10;98.20;;;;;;5085209;28;21092;-74
2022/10/11 08:04:25;;;;;;;1.50;1.10;;;10.20;98.20;;;;;;5093447;28;20510;-75
2022/10/11 08:06:52;;;;;;;1.50;1.10;;;10.30;98.20;;;;;;5083913;28;20487;-75
2022/10/11 08:09:19;;;;;;;1.53;1.10;;;10.30;98.20;;;;;;5093622;28;21004;-75
2022/10/11 08:11:48;;;;;;;1.53;1.10;;;10.40;98.20;;;;;;5074329;28;20853;-76
2022/10/11 08:14:15;;;;;;;1.50;1.10;;;10.40;98.20;;;;;;5086867;28;20453;-75
2022/10/11 08:16:42;;;;;;;1.50;1.10;;;10.50;98.20;;;;;;5082765;28;20467;-75
2022/10/11 08:19:10;;;;;;;1.50;1.10;;;10.60;98.20;;;;;;5091546;28;20545;-75
2022/10/11 08:21:37;;;;;;;1.50;1.10;;;10.70;98.20;;;;;;5081104;28;20638;-75
2022/10/11 08:24:06;;;;;;;1.50;1.10;;;10.70;98.20;;;;;;5100531;28;20734;-76
2022/10/11 08:26:34;;;;;;;1.50;1.10;;;10.80;98.20;;;;;;5085872;28;20562;-76
2022/10/11 08:29:03;;;;;;;1.50;1.10;;;10.80;98.20;;;;;;5099429;28;20976;-76
2022/10/11 08:31:31;;;;;;;1.50;1.10;;;10.80;98.20;;;;;;5085467;28;20475;-76
2022/10/11 08:33:58;;;;;;;1.50;1.10;;;10.80;98.20;;;;;;5098594;28;20539;-76
2022/10/11 08:36:25;;;;;;;1.50;1.10;;;10.80;98.20;;;;;;5083145;28;20539;-76
2022/10/11 08:38:52;;;;;;;1.50;1.10;;;10.90;98.20;;;;;;5098371;28;20488;-76
2022/10/11 08:41:30;;;;;;;1.50;1.10;;;10.90;98.20;;;;;;5082947;28;20475;-76
2022/10/11 08:44:20;;;;;;;1.50;1.10;;;10.90;98.20;;;;;;5098505;28;20456;-76
2022/10/11 08:46:51;;;;;;;1.50;1.10;;;10.90;98.20;;;;;;5082848;28;20483;-76
2022/10/11 08:49:23;;;;;;;1.50;1.10;;;10.90;98.20;;;;;;5096297;28;20493;-76
2022/10/11 08:51:58;;;;;;;1.50;1.10;;;10.90;98.20;;;;;;5087657;27;20467;-76
2022/10/11 08:54:37;;;;;;;1.50;1.10;;;11.00;98.20;;;;;;5094354;28;20471;-76
2022/10/11 08:57:07;;;;;;;1.50;1.10;;;10.90;98.20;;;;;;5086917;28;20475;-76
2022/10/11 08:59:41;;;;;;;1.50;1.10;;;10.90;98.20;;;;;;5092603;28;21014;-77
2022/10/11 09:02:29;;;;;;;1.50;1.10;;;10.90;98.20;;;;;;5087395;28;20478;-76
2022/10/11 09:04:56;;;;;;;1.60;1.20;;;11.00;98.20;;;;;;5090781;28;20460;-76
2022/10/11 09:07:36;;;;;;;1.50;1.00;;;11.10;98.20;;;;;;5090867;28;20882;-76
2022/10/11 09:10:31;;;;;;;1.50;1.00;;;11.10;98.20;;;;;;5089422;28;20483;-76
2022/10/11 09:13:12;;;;;;;1.57;1.10;;;11.20;98.20;;;;;;5093561;28;20475;-76
2022/10/11 09:15:45;;;;;;;1.50;1.10;;;11.30;98.20;;;;;;5083767;28;20472;-76
2022/10/11 09:18:39;;;;;;;1.50;1.10;;;11.30;98.20;;;;;;5093517;28;20854;-76
2022/10/11 09:21:27;;;;;;;1.50;1.10;;;11.40;98.20;;;;;;5079763;28;20460;-77
2022/10/11 09:24:15;;;;;;;1.50;1.10;;;11.40;98.20;;;;;;5098911;28;21019;-76
2022/10/11 09:26:50;;;;;;;1.53;1.10;;;11.50;98.20;;;;;;5086059;28;20479;-76
2022/10/11 09:29:27;;;;;;;1.50;1.17;;;11.50;98.20;;;;;;5095894;28;20868;-76
2022/10/11 09:31:57;;;;;;;1.50;1.10;;;11.50;98.20;;;;;;5086726;28;20532;-77
2022/10/11 09:34:32;;;;;;;1.50;1.00;;;11.50;98.20;;;;;;5092172;28;20463;-77
2022/10/11 09:37:05;;;;;;;1.53;1.10;;;11.50;98.20;;;;;;5075951;28;20484;-77
2022/10/11 09:39:35;;;;;;;1.50;1.00;;;11.50;98.20;;;;;;5087302;28;20492;-76
2022/10/11 09:42:04;;;;;;;1.50;1.10;;;11.50;98.20;;;;;;5088569;27;20574;-77
2022/10/11 09:44:41;;;;;;;1.50;1.10;;;11.60;98.20;;;;;;5094011;28;20453;-76
2022/10/11 09:47:16;;;;;;;1.50;1.00;;;11.60;98.20;;;;;;5076379;28;20486;-77
2022/10/11 09:49:50;;;;;;;1.60;1.37;;;11.50;98.20;;;;;;5083874;28;21032;-77
2022/10/11 09:52:20;;;;;;;1.50;1.00;;;11.40;98.20;;;;;;5089687;28;20563;-76
2022/10/11 09:54:49;;;;;;;1.50;1.00;;;11.50;98.20;;;;;;5092585;28;20657;-76
2022/10/11 09:57:24;;;;;;;1.50;1.10;;;11.50;98.20;;;;;;5088544;28;20480;-77
2022/10/11 10:00:06;;;;;;;1.50;1.07;;;11.60;98.20;;;;;;5090986;27;20587;-77
2022/10/11 10:02:42;;;;;;;1.50;1.00;;;11.70;98.20;;;;;;5073835;28;20496;-77
2022/10/11 10:05:17;;;;;;;1.50;1.10;;;11.80;98.20;;;;;;5086139;28;20964;-78
2022/10/11 10:08:00;;;;;;;1.50;1.10;;;11.90;98.20;;;;;;5093807;28;20478;-78
2022/10/11 10:10:31;;;;;;;1.50;1.00;;;11.90;98.20;;;;;;5088655;28;20460;-78
2022/10/11 10:13:00;;;;;;;1.90;1.47;;;12.00;98.20;;;;;;5081243;28;20475;-77
2022/10/11 10:15:30;;;;;;;1.57;1.07;;;12.00;98.20;;;;;;5087791;28;20518;-77
2022/10/11 10:17:59;;;;;;;1.50;1.10;;;12.20;98.20;;;;;;5093999;28;21027;-78
2022/10/11 10:20:31;;;;;;;1.50;1.10;;;12.30;98.20;;;;;;5088643;28;20854;-77
2022/10/11 10:22:59;;;;;;;1.60;1.10;;;12.50;98.20;;;;;;5094807;27;21016;-77
2022/10/11 10:25:34;;;;;;;1.50;1.10;;;12.60;98.20;;;;;;5086445;28;20620;-77
2022/10/11 10:28:04;;;;;;;1.53;1.10;;;12.60;98.20;;;;;;5093153;28;20479;-78
2022/10/11 10:30:31;;;;;;;1.50;1.00;;;12.80;98.20;;;;;;5088520;28;20473;-78
2022/10/11 10:33:04;;;;;;;1.50;1.00;;;13.00;98.20;;;;;;5090654;28;20548;-78
2022/10/11 10:35:37;;;;;;;1.50;1.00;;;13.10;98.20;;;;;;5087415;28;20464;-78
2022/10/11 10:38:12;;;;;;;1.57;1.00;;;13.30;98.20;;;;;;5081090;28;20493;-78
2022/10/11 10:40:45;;;;;;;1.50;1.00;;;13.40;98.20;;;;;;5095386;28;20480;-79
2022/10/11 10:43:18;;;;;;;1.50;1.00;;;13.40;98.20;;;;;;5075245;28;20545;-79
2022/10/11 10:46:17;;;;;;;1.50;1.00;;;13.60;98.20;;;;;;5085056;28;20857;-78
2022/10/11 10:48:52;;;;;;;1.50;1.00;;;13.80;98.20;;;;;;5073706;28;20526;-78
2022/10/11 10:51:39;;;;;;;1.50;1.00;;;14.00;98.20;;;;;;5079765;28;20893;-79
2022/10/11 10:54:17;;;;;;;1.50;1.00;;;14.20;98.20;;;;;;5095717;28;20460;-78
2022/10/11 10:56:51;;;;;;;1.50;0.90;;;14.30;98.20;;;;;;5083665;28;20484;-78
2022/10/11 10:59:47;;;;;;;1.57;1.00;;;14.40;98.20;;;;;;5093731;28;20489;-78
2022/10/11 11:02:19;;;;;;;1.50;1.00;;;14.70;98.20;;;;;;5079323;28;20478;-79
2022/10/11 11:04:54;;;;;;;1.50;0.90;;;15.10;98.20;;;;;;5086256;28;20492;-78
2022/10/11 11:07:32;;;;;;;1.50;1.00;;;15.40;98.20;;;;;;5089181;28;20533;-78
2022/10/11 11:10:05;;;;;;;1.50;0.90;;;15.70;98.20;;;;;;5089392;28;20517;-78
2022/10/11 11:12:44;;;;;;;1.50;0.90;;;16.00;98.20;;;;;;5089345;28;20921;-78
2022/10/11 11:15:19;;;;;;;1.50;1.00;;;16.30;98.20;;;;;;5078367;28;20463;-78
2022/10/11 11:18:01;;;;;;;1.50;1.00;;;16.50;98.20;;;;;;5073621;28;20472;-79
2022/10/11 11:20:43;;;;;;;1.60;1.10;;;16.60;98.20;;;;;;5082990;28;20476;-78
2022/10/11 11:23:22;;;;;;;1.50;0.90;;;16.70;98.20;;;;;;5072237;28;20486;-80
2022/10/11 11:25:57;;;;;;;1.50;0.97;;;16.80;98.20;;;;;;5076424;28;20893;-78
2022/10/11 11:29:07;;;;;;;1.50;0.90;;;17.00;98.20;;;;;;5097156;28;21071;-78
2022/10/11 11:32:09;;;;;;;1.50;0.90;;;17.10;98.20;;;;;;5074476;28;20980;-79
2022/10/11 11:34:42;;;;;;;1.50;0.90;;;17.30;98.20;;;;;;5085855;28;20460;-78
2022/10/11 11:37:21;;;;;;;1.50;0.90;;;17.50;98.10;;;;;;5080305;28;20521;-79
2022/10/11 11:39:50;;;;;;;1.50;0.90;;;17.70;97.00;;;;;;5084821;28;20567;-78
2022/10/11 11:42:23;;;;;;;1.50;0.90;;;17.80;96.60;;;;;;5091016;28;20536;-79
2022/10/11 11:44:51;;;;;;;1.50;0.90;;;17.90;96.10;;;;;;5084551;28;20575;-78
2022/10/11 11:47:23;;;;;;;1.50;0.90;;;18.10;96.50;;;;;;5077509;28;22056;-78
2022/10/11 11:49:57;;;;;;;1.50;1.00;;;18.20;95.00;;;;;;5083463;28;20487;-79
2022/10/11 11:52:29;;;;;;;1.50;0.90;;;18.30;95.00;;;;;;5086890;28;20479;-78
2022/10/11 11:55:09;;;;;;;1.50;0.90;;;18.50;94.40;;;;;;5088470;28;20471;-76
2022/10/11 11:57:48;;;;;;;1.60;1.10;;;18.50;92.60;;;;;;5090863;28;20532;-77
2022/10/11 12:00:18;;;;;;;1.50;0.90;;;18.60;93.90;;;;;;5087625;28;20577;-77
2022/10/11 12:02:51;;;;;;;1.50;0.90;;;18.80;92.40;;;;;;5076420;28;20972;-77
2022/10/11 12:05:22;;;;;;;1.50;1.00;;;18.80;92.20;;;;;;5089939;28;20466;-77
2022/10/11 12:07:58;;;;;;;1.50;0.90;;;18.90;93.40;;;;;;5092679;28;20491;-77
2022/10/11 12:10:35;;;;;;;1.50;0.90;;;19.00;90.90;;;;;;5090482;28;21198;-76
2022/10/11 12:13:24;;;;;;;1.50;0.90;;;19.10;91.10;;;;;;5093368;27;20518;-77
2022/10/11 12:16:11;;;;;;;1.50;0.90;;;19.30;91.90;;;;;;5077382;28;20994;-77
2022/10/11 12:18:49;;;;;;;1.50;0.90;;;19.40;90.90;;;;;;5101996;28;20545;-79
2022/10/11 12:21:26;;;;;;;1.50;0.90;;;19.30;89.00;;;;;;5082589;28;20551;-77
2022/10/11 12:23:56;;;;;;;1.50;0.90;;;19.40;89.10;;;;;;5104275;28;20498;-76
2022/10/11 12:26:42;;;;;;;1.50;1.00;;;19.40;88.30;;;;;;5077308;28;20487;-77
2022/10/11 12:29:25;;;;;;;1.50;1.10;;;19.30;86.80;;;;;;5087025;28;20781;-76
2022/10/11 12:32:12;;;;;;;1.50;0.90;;;19.30;85.60;;;;;;5074903;28;20498;-77
2022/10/11 12:34:41;;;;;;;1.50;0.90;;;19.20;86.00;;;;;;5088128;28;20839;-77
2022/10/11 12:37:48;;;;;;;1.50;0.90;;;19.00;86.60;;;;;;5090996;28;20984;-77
2022/10/11 12:40:40;;;;;;;1.50;1.13;;;18.80;87.10;;;;;;5084687;28;20495;-77
2022/10/11 12:43:34;;;;;;;2.07;1.53;;;18.60;88.60;;;;;;5093693;28;20479;-78
2022/10/11 12:46:39;;;;;;;1.50;0.90;;;18.30;86.70;;;;;;5076292;28;20488;-77
2022/10/11 12:49:27;;;;;;;1.50;0.90;;;18.00;87.40;;;;;;5086029;28;20532;-76
2022/10/11 12:52:00;;;;;;;1.50;0.90;;;17.80;88.30;;;;;;5077799;28;20603;-76
2022/10/11 12:54:53;;;;;;;1.50;1.00;;;17.80;88.80;;;;;;5087348;28;20465;-78
2022/10/11 12:57:54;;;;;;;1.50;0.90;;;18.00;89.60;;;;;;5090004;28;20475;-77
2022/10/11 13:00:27;;;;;;;1.50;0.90;;;18.10;87.50;;;;;;5088027;28;21029;-78
2022/10/11 13:02:55;;;;;;;1.50;0.90;;;18.20;86.60;;;;;;5075872;28;21028;-77
2022/10/11 13:05:26;;;;;;;1.50;0.90;;;18.30;86.10;;;;;;5088276;28;20463;-77
2022/10/11 13:07:56;;;;;;;1.50;0.90;;;18.40;86.70;;;;;;5093616;28;20480;-79
2022/10/11 13:10:28;;;;;;;1.50;0.90;;;18.30;84.40;;;;;;5088334;28;20460;-78
2022/10/11 13:13:03;;;;;;;1.50;0.90;;;18.20;86.00;;;;;;5092455;28;20504;-78
2022/10/11 13:15:30;;;;;;;1.50;0.90;;;18.20;87.90;;;;;;5086994;28;20576;-77
2022/10/11 13:17:59;;;;;;;2.43;1.73;;;18.30;87.20;;;;;;5072954;28;20489;-78